KLM44M EHAM-EDDB
Flight info
| Callsign | KLM44M |
|---|---|
| Flight time | N/A |
| Altitude | 31999 |
| Route | ARNEM L620 SUVOX OSN BATEL T207 OGBER OGB06R |
| Aircraft | A333/H-KLM/L |
Departure
| Time | 2026-04-28 15:32 |
|---|---|
| Airport | Amsterdam Airport Schiphol (EHAM) |
Arrival
| Time | N/A |
|---|---|
| Airport | Berlin Brandenburg Airport (EDDB) |
| Time | Latitude | Longitude | Altitude | Speed | Heading |
|---|---|---|---|---|---|
| 2026-04-28 15:17 | 52.31287 | 4.75593 | 8 ft | 0 kts | 87° |
| 2026-04-28 15:22 | 52.31286 | 4.75578 | 9 ft | 3 kts | 87° |
| 2026-04-28 15:22 | 52.31285 | 4.75548 | 9 ft | 3 kts | 80° |
| 2026-04-28 15:22 | 52.31277 | 4.75517 | 11 ft | 3 kts | 45° |
| 2026-04-28 15:23 | 52.31265 | 4.75497 | 12 ft | 3 kts | 45° |
| 2026-04-28 15:23 | 52.31250 | 4.75478 | 11 ft | 0 kts | 4° |
| 2026-04-28 15:25 | 52.31278 | 4.75480 | 12 ft | 8 kts | 359° |
| 2026-04-28 15:25 | 52.31370 | 4.75475 | 11 ft | 17 kts | 357° |
| 2026-04-28 15:26 | 52.31488 | 4.75444 | 15 ft | 12 kts | 323° |
| 2026-04-28 15:26 | 52.31509 | 4.75336 | 13 ft | 13 kts | 274° |
| 2026-04-28 15:26 | 52.31504 | 4.75150 | 14 ft | 18 kts | 267° |
| 2026-04-28 15:26 | 52.31496 | 4.74929 | 18 ft | 21 kts | 267° |
| 2026-04-28 15:27 | 52.31492 | 4.74779 | 18 ft | 9 kts | 268° |
| 2026-04-28 15:27 | 52.31496 | 4.74730 | 18 ft | 3 kts | 284° |
| 2026-04-28 15:27 | 52.31498 | 4.74721 | 18 ft | 0 kts | 290° |
| 2026-04-28 15:27 | 52.31498 | 4.74719 | 19 ft | 1 kts | 291° |
| 2026-04-28 15:28 | 52.31520 | 4.74685 | 20 ft | 8 kts | 325° |
| 2026-04-28 15:28 | 52.31533 | 4.74676 | 20 ft | 0 kts | 340° |
| 2026-04-28 15:29 | 52.31538 | 4.74673 | 23 ft | 2 kts | 342° |
| 2026-04-28 15:29 | 52.31550 | 4.74668 | 22 ft | 1 kts | 346° |
| 2026-04-28 15:29 | 52.31553 | 4.74668 | 23 ft | 0 kts | 349° |
| 2026-04-28 15:30 | 52.31564 | 4.74666 | 24 ft | 5 kts | 354° |
| 2026-04-28 15:30 | 52.31615 | 4.74671 | 26 ft | 10 kts | 8° |
| 2026-04-28 15:31 | 52.31663 | 4.74751 | 27 ft | 13 kts | 68° |
| 2026-04-28 15:31 | 52.31679 | 4.75006 | 17 ft | 46 kts | 86° |
| 2026-04-28 15:31 | 52.31708 | 4.75847 | 25 ft | 100 kts | 87° |
| 2026-04-28 15:31 | 52.31758 | 4.77241 | 37 ft | 143 kts | 82° |
| 2026-04-28 15:32 | 52.31809 | 4.78840 | 591 ft | 140 kts | 82° |
| 2026-04-28 15:32 | 52.31824 | 4.79898 | 997 ft | 141 kts | 84° |
| 2026-04-28 15:32 | 52.31837 | 4.82094 | 1794 ft | 149 kts | 85° |
| 2026-04-28 15:32 | 52.31833 | 4.83822 | 2379 ft | 153 kts | 87° |
| 2026-04-28 15:33 | 52.31783 | 4.85598 | 2935 ft | 162 kts | 95° |